createdAt,value
2023-08-11T00:08:29.444Z,0
2023-08-11T00:28:41.533Z,0
2023-08-11T00:38:47.603Z,0
2023-08-11T00:48:53.653Z,0
2023-08-11T00:58:59.700Z,0
2023-08-11T01:09:05.742Z,0
2023-08-11T01:29:17.836Z,0
2023-08-11T01:39:23.882Z,0
2023-08-11T01:49:29.939Z,0
2023-08-11T01:59:36.056Z,0
2023-08-11T02:09:42.250Z,0
2023-08-11T02:19:48.306Z,0
2023-08-11T02:29:54.418Z,0
2023-08-11T02:40:00.561Z,0
2023-08-11T02:50:06.685Z,0
2023-08-11T03:00:12.814Z,0
2023-08-11T03:10:17.917Z,0
2023-08-11T03:20:22.983Z,0
2023-08-11T03:30:29.026Z,0
2023-08-11T03:40:35.082Z,4
2023-08-11T03:50:41.139Z,12
2023-08-11T04:00:47.178Z,44
2023-08-11T04:10:53.228Z,112
2023-08-11T04:20:59.269Z,208
2023-08-11T04:31:05.311Z,316
2023-08-11T04:41:11.443Z,420
2023-08-11T04:51:17.416Z,512
2023-08-11T05:01:23.450Z,604
2023-08-11T05:11:29.501Z,672
2023-08-11T05:21:35.565Z,732
2023-08-11T05:31:40.610Z,780
2023-08-11T05:41:46.703Z,824
2023-08-11T05:51:52.719Z,876
2023-08-11T06:01:58.767Z,904
2023-08-11T06:22:10.849Z,984
2023-08-11T06:32:16.907Z,1020
2023-08-11T06:42:21.979Z,1044
2023-08-11T06:52:27.048Z,1064
2023-08-11T07:02:33.109Z,1080
2023-08-11T07:12:39.146Z,1096
2023-08-11T07:22:45.192Z,1112
2023-08-11T07:32:51.231Z,1148
2023-08-11T07:42:57.289Z,1168
2023-08-11T07:53:03.347Z,1200
2023-08-11T08:03:09.373Z,1228
2023-08-11T08:13:15.431Z,1248
2023-08-11T08:23:21.490Z,1268
2023-08-11T08:33:27.534Z,1288
2023-08-11T08:43:33.568Z,1304
2023-08-11T08:53:39.626Z,1320
2023-08-11T09:03:45.669Z,1336
2023-08-11T09:13:50.728Z,1356
2023-08-11T09:23:56.771Z,1384
2023-08-11T09:34:02.851Z,1416
2023-08-11T09:44:08.865Z,1436
2023-08-11T09:54:14.915Z,1472
2023-08-11T10:04:20.988Z,1504
2023-08-11T10:14:27.071Z,1540
2023-08-11T10:24:33.058Z,1584
2023-08-11T10:34:39.113Z,1624
2023-08-11T10:44:45.157Z,1680
2023-08-11T10:54:51.197Z,1740
2023-08-11T11:04:57.252Z,1792
2023-08-11T11:25:09.343Z,1832
2023-08-11T11:35:14.413Z,1944
2023-08-11T11:45:20.472Z,2020
2023-08-11T11:55:26.516Z,2120
2023-08-11T12:05:32.587Z,2252
2023-08-11T12:15:38.604Z,3640
2023-08-11T12:25:44.666Z,2300
2023-08-11T12:35:50.709Z,2360
2023-08-11T12:45:56.751Z,2460
2023-08-11T12:56:02.816Z,2708
2023-08-11T13:06:08.855Z,2980
2023-08-11T13:16:14.910Z,3464
2023-08-11T13:26:20.961Z,3432
2023-08-11T13:36:27.003Z,3768
2023-08-11T13:46:32.067Z,5068
2023-08-11T13:56:38.119Z,53216
2023-08-11T14:06:44.341Z,58912
2023-08-11T14:16:50.229Z,55040
2023-08-11T14:26:56.269Z,37504
2023-08-11T14:37:02.326Z,34496
2023-08-11T14:47:08.382Z,27360
2023-08-11T14:57:14.788Z,30464
2023-08-11T15:07:20.462Z,14364
2023-08-11T15:17:26.522Z,6548
2023-08-11T15:27:32.557Z,5964
2023-08-11T15:37:38.624Z,6604
2023-08-11T15:47:44.668Z,5204
2023-08-11T15:57:49.733Z,5156
2023-08-11T16:07:55.784Z,4900
2023-08-11T16:18:01.825Z,5132
2023-08-11T16:28:07.892Z,5176
2023-08-11T16:38:13.956Z,7020
2023-08-11T16:48:19.974Z,4532
2023-08-11T16:58:26.029Z,2700
2023-08-11T17:08:32.078Z,2188
2023-08-11T17:18:38.114Z,1920
2023-08-11T17:28:44.169Z,1600
2023-08-11T17:38:50.231Z,1996
2023-08-11T17:48:56.266Z,2040
2023-08-11T17:59:02.334Z,1080
2023-08-11T18:09:07.382Z,752
2023-08-11T18:19:13.516Z,496
2023-08-11T18:29:19.483Z,412
2023-08-11T18:39:25.541Z,300
2023-08-11T18:49:31.626Z,168
2023-08-11T18:59:37.658Z,80
2023-08-11T19:09:43.690Z,32
2023-08-11T19:19:49.727Z,8
2023-08-11T19:29:55.761Z,4
2023-08-11T19:40:01.863Z,0
2023-08-11T19:50:07.868Z,0
2023-08-11T20:00:13.924Z,0
2023-08-11T20:10:19.976Z,0
2023-08-11T20:20:25.042Z,0
2023-08-11T20:30:31.095Z,0
2023-08-11T20:40:37.122Z,0
2023-08-11T20:50:43.183Z,0
2023-08-11T21:00:49.232Z,0
2023-08-11T21:10:55.268Z,0
2023-08-11T21:21:01.324Z,0
2023-08-11T21:31:07.366Z,0
2023-08-11T21:41:13.524Z,0
2023-08-11T21:51:19.517Z,0
2023-08-11T22:01:25.514Z,0
2023-08-11T22:11:31.557Z,0
2023-08-11T22:21:37.617Z,0
2023-08-11T22:31:42.677Z,0
2023-08-11T22:41:48.723Z,0
2023-08-11T22:51:54.755Z,0
2023-08-11T23:02:00.816Z,0
2023-08-11T23:12:06.864Z,0
2023-08-11T23:22:12.919Z,0
2023-08-11T23:32:18.958Z,0
2023-08-11T23:42:25.004Z,0
2023-08-11T23:52:31.114Z,0
